Rafael Núñez International Airport

Airport
ICAO code: 
SKCG
IATA Code: 
CTG
Summary
ICAO Region: 
CARSAM
Territory: 
Location: 
Urbanizacion Eliana, Bolivar Department
Serving: 
Cartagena
Elevation: 
7 ft
Coordinates: 
Aerial View: 
10° 26' 46.734" N, 75° 30' 59.234" W
Metar
Observation
SKCG 030900Z 01006KT 9999 FEW020 26/24 Q1006 RMK A2973
Station
Cartagena / Rafael Nunez
Date/Time
2021-12-03 09:00:00
Wind direction
10°
Wind speed
06 kts
Lowest cloud amount
few clouds
Temperature
26°C
Dew point
24°C
Humidity
88%
QNH
1006 hPa
Weather condition
n/a

Rafael Núñez International Airport is an airport serving the Caribbean port city of Cartagena, Colombia.

Climatology

Tropical savanna climate (Köppen climate classification Aw)

Runways

Designator Length Width Surface Rops
1/19 2600 45 ASP Yes/Yes
Airport map: 
Aerial View: 

SKYbrary Partners:

Safety knowledge contributed by: